Time;durP1;ratioP1;P1;durP2;ratioP2;P2;SDS_P1;SDS_P2;PMS_P1;PMS_P2;Temp;Humidity;BMP_temperature;BMP_pressure;BME280_temperature;BME280_humidity;BME280_pressure;Samples;Min_cycle;Max_cycle;Signal;HPM_P1;HPM_P2
2022/07/05 00:01:00;;;;;;;0.50;0.50;;;;;;;18.78;44.06;99139.75;5112694;28;41025;-79
2022/07/05 00:03:29;;;;;;;0.30;0.30;;;;;;;18.74;44.58;99138.31;5112347;28;41803;-78
2022/07/05 00:05:57;;;;;;;0.50;0.50;;;;;;;18.68;44.46;99130.81;5112374;28;43582;-78
2022/07/05 00:08:26;;;;;;;0.73;0.60;;;;;;;18.52;43.99;99117.09;5115261;28;42235;-78
2022/07/05 00:10:55;;;;;;;0.60;0.60;;;;;;;18.58;44.33;99133.50;5116027;28;40972;-78
2022/07/05 00:13:23;;;;;;;0.60;0.60;;;;;;;18.39;44.61;99106.63;5080584;28;41799;-79
2022/07/05 00:15:52;;;;;;;0.53;0.53;;;;;;;18.46;44.55;99123.00;5097552;28;41689;-79
2022/07/05 00:18:19;;;;;;;0.70;0.50;;;;;;;18.29;44.59;99117.34;5097400;28;40867;-78
2022/07/05 00:20:47;;;;;;;0.50;0.50;;;;;;;18.33;44.75;99128.63;5080230;28;38802;-79
2022/07/05 00:23:15;;;;;;;1.17;0.73;;;;;;;18.25;45.07;99126.66;5080711;28;40828;-79
2022/07/05 00:25:43;;;;;;;0.50;0.50;;;;;;;18.21;45.08;99119.00;5097262;28;41963;-79
2022/07/05 00:28:13;;;;;;;0.80;0.70;;;;;;;18.16;45.02;99122.13;5080223;28;41215;-78
2022/07/05 00:30:41;;;;;;;0.50;0.50;;;;;;;17.99;45.04;99106.69;5097477;28;41629;-78
2022/07/05 00:33:09;;;;;;;0.50;0.50;;;;;;;18.10;44.95;99128.00;5097641;28;41870;-79
2022/07/05 00:35:37;;;;;;;0.77;0.53;;;;;;;18.08;45.23;99138.03;5080018;28;41645;-79
2022/07/05 00:38:04;;;;;;;0.50;0.50;;;;;;;17.96;45.38;99115.00;5097607;28;42183;-78
2022/07/05 00:40:32;;;;;;;0.70;0.60;;;;;;;18.01;45.23;99134.19;5097134;28;39700;-79
2022/07/05 00:43:00;;;;;;;0.53;0.50;;;;;;;18.00;45.97;99131.66;5097637;28;42618;-78
2022/07/05 00:45:29;;;;;;;0.60;0.60;;;;;;;17.94;46.16;99133.88;5097214;28;43784;-78
2022/07/05 00:47:57;;;;;;;0.83;0.70;;;;;;;17.90;45.78;99139.66;5096853;28;41282;-79
2022/07/05 00:50:25;;;;;;;0.60;0.60;;;;;;;17.88;45.90;99147.00;5080056;28;38693;-78
2022/07/05 00:52:55;;;;;;;0.67;0.50;;;;;;;17.76;46.20;99129.31;5079849;28;42133;-78
2022/07/05 00:55:23;;;;;;;0.70;0.60;;;;;;;17.71;46.03;99127.03;5079850;28;42967;-78
2022/07/05 00:57:52;;;;;;;0.60;0.60;;;;;;;17.80;45.78;99150.31;5097141;28;43181;-78
2022/07/05 01:00:20;;;;;;;0.60;0.60;;;;;;;17.75;46.13;99135.66;5079985;28;39950;-78
2022/07/05 01:02:49;;;;;;;0.50;0.50;;;;;;;17.71;46.01;99142.25;5079861;28;40934;-77
2022/07/05 01:05:17;;;;;;;0.97;0.63;;;;;;;17.74;46.27;99152.69;5096586;28;43548;-77
2022/07/05 01:07:45;;;;;;;0.40;0.40;;;;;;;17.59;46.23;99126.22;5096964;28;43189;-78
2022/07/05 01:10:13;;;;;;;0.77;0.60;;;;;;;17.69;46.19;99155.78;5096786;28;40076;-78
2022/07/05 01:12:41;;;;;;;1.07;0.90;;;;;;;17.65;47.18;99149.00;5096868;28;42712;-79
2022/07/05 01:15:10;;;;;;;0.60;0.60;;;;;;;17.62;46.83;99151.06;5114620;28;43266;-78
2022/07/05 01:17:38;;;;;;;0.70;0.70;;;;;;;17.43;47.26;99122.34;5096507;27;42215;-78
2022/07/05 01:20:08;;;;;;;0.67;0.50;;;;;;;17.51;46.96;99131.41;5079771;28;40292;-78
2022/07/05 01:22:53;;;;;;;0.80;0.80;;;;;;;17.51;46.91;99142.13;5096982;28;41227;-78
2022/07/05 01:25:22;;;;;;;0.60;0.60;;;;;;;17.40;46.89;99127.97;5079962;28;42955;-78
2022/07/05 01:27:50;;;;;;;0.40;0.40;;;;;;;17.43;47.13;99138.44;5079697;28;41389;-78
2022/07/05 01:30:19;;;;;;;0.60;0.50;;;;;;;17.36;47.22;99132.72;5096495;28;40021;-78
2022/07/05 01:32:47;;;;;;;0.60;0.60;;;;;;;17.34;47.33;99128.47;5079738;28;40738;-78
2022/07/05 01:35:20;;;;;;;0.53;0.53;;;;;;;17.32;47.10;99131.28;5078970;28;43206;-79
2022/07/05 01:37:49;;;;;;;0.70;0.70;;;;;;;17.28;47.39;99134.38;5111677;28;42413;-78
2022/07/05 01:40:18;;;;;;;0.70;0.70;;;;;;;17.20;47.04;99122.47;5079207;28;38928;-78
2022/07/05 01:42:46;;;;;;;1.83;0.63;;;;;;;17.18;47.29;99131.66;5096498;28;42467;-78
2022/07/05 01:45:38;;;;;;;0.67;0.53;;;;;;;17.15;47.19;99134.56;5096408;28;42894;-79
2022/07/05 01:48:05;;;;;;;0.50;0.50;;;;;;;17.10;47.60;99134.94;5078708;28;41302;-79
2022/07/05 01:50:39;;;;;;;0.60;0.60;;;;;;;17.07;47.75;99131.69;5078950;28;39332;-79
2022/07/05 01:53:15;;;;;;;0.87;0.87;;;;;;;17.04;48.67;99121.25;5096216;28;40600;-78
2022/07/05 01:55:42;;;;;;;0.70;0.70;;;;;;;16.98;48.68;99127.13;5095843;28;43774;-78
2022/07/05 01:58:11;;;;;;;1.40;0.73;;;;;;;16.99;48.22;99128.81;5079325;28;41450;-78
2022/07/05 02:00:44;;;;;;;0.70;0.70;;;;;;;16.97;48.58;99134.28;5096067;28;39816;-78
2022/07/05 02:03:13;;;;;;;0.70;0.70;;;;;;;16.81;48.42;99113.31;5079286;28;41695;-78
2022/07/05 02:05:42;;;;;;;0.90;0.70;;;;;;;16.86;48.71;99127.16;5078505;28;41923;-78
2022/07/05 02:08:14;;;;;;;0.87;0.70;;;;;;;16.84;49.05;99123.78;5079298;28;41199;-78
2022/07/05 02:10:44;;;;;;;0.80;0.70;;;;;;;16.80;48.63;99126.84;5096034;28;40318;-78
2022/07/05 02:13:13;;;;;;;0.57;0.57;;;;;;;16.76;48.76;99133.44;5079018;28;41773;-79
2022/07/05 02:15:42;;;;;;;0.90;0.60;;;;;;;16.72;49.01;99140.84;5095602;28;42798;-78
2022/07/05 02:18:11;;;;;;;0.67;0.67;;;;;;;16.69;48.92;99132.25;5078841;28;42560;-78
2022/07/05 02:20:42;;;;;;;0.83;0.83;;;;;;;16.65;49.30;99130.78;5095776;28;39649;-79
2022/07/05 02:23:13;;;;;;;0.60;0.60;;;;;;;16.60;49.68;99128.47;5078909;28;41659;-78
2022/07/05 02:25:41;;;;;;;0.50;0.50;;;;;;;16.57;49.79;99128.69;5095509;28;43827;-78
2022/07/05 02:28:15;;;;;;;0.70;0.70;;;;;;;16.42;49.90;99105.94;5078564;28;42372;-78
2022/07/05 02:30:46;;;;;;;0.97;0.73;;;;;;;16.51;50.08;99129.22;5095081;28;39748;-78
2022/07/05 02:33:14;;;;;;;0.93;0.80;;;;;;;16.48;49.48;99126.81;5078479;28;41813;-78
2022/07/05 02:35:42;;;;;;;1.00;0.67;;;;;;;16.36;49.34;99109.94;5078222;28;43135;-79
2022/07/05 02:38:10;;;;;;;0.60;0.60;;;;;;;16.45;49.74;99135.91;5095938;28;42349;-79
2022/07/05 02:40:39;;;;;;;0.60;0.60;;;;;;;16.41;49.76;99129.16;5095287;28;39775;-78
2022/07/05 02:43:08;;;;;;;0.60;0.60;;;;;;;16.42;49.60;99135.34;5078782;28;40761;-78
2022/07/05 02:45:36;;;;;;;0.53;0.53;;;;;;;16.39;49.52;99140.94;5095234;28;42696;-78
2022/07/05 02:48:05;;;;;;;0.50;0.50;;;;;;;16.38;49.67;99144.56;5078173;28;41372;-78
2022/07/05 02:50:34;;;;;;;1.60;0.63;;;;;;;16.33;49.96;99141.41;5078316;28;38877;-78
2022/07/05 02:53:02;;;;;;;1.00;0.70;;;;;;;16.28;50.34;99136.47;5078349;28;41728;-78
2022/07/05 02:55:30;;;;;;;0.60;0.60;;;;;;;16.30;50.50;99137.19;5078184;28;41975;-78
2022/07/05 02:58:00;;;;;;;0.90;0.67;;;;;;;16.00;50.90;99094.25;5078244;28;41115;-77
2022/07/05 03:00:31;;;;;;;0.83;0.77;;;;;;;16.24;51.13;99136.81;5078150;28;41797;-78
2022/07/05 03:02:59;;;;;;;0.70;0.70;;;;;;;16.22;51.11;99149.47;5095433;28;41848;-78
2022/07/05 03:05:28;;;;;;;0.70;0.70;;;;;;;16.19;51.69;99136.38;5094776;28;43856;-79
2022/07/05 03:08:00;;;;;;;0.60;0.60;;;;;;;16.02;51.44;99116.34;5092330;28;43169;-78
2022/07/05 03:10:30;;;;;;;0.70;0.70;;;;;;;16.13;52.06;99143.91;5094901;28;39894;-78
2022/07/05 03:13:00;;;;;;;0.73;0.73;;;;;;;16.08;51.35;99140.72;5095160;28;41889;-78
2022/07/05 03:15:28;;;;;;;0.77;0.77;;;;;;;16.06;51.19;99144.53;5077791;28;41513;-79
2022/07/05 03:17:56;;;;;;;0.77;0.70;;;;;;;16.04;51.44;99154.47;5077981;28;41453;-78
2022/07/05 03:20:26;;;;;;;1.70;0.70;;;;;;;15.92;51.34;99142.97;5077668;28;38807;-78
2022/07/05 03:22:54;;;;;;;0.60;0.60;;;;;;;16.00;51.36;99143.19;5077790;28;40547;-78
2022/07/05 03:25:28;;;;;;;1.33;0.77;;;;;;;15.98;51.19;99153.13;5094246;28;42470;-78
2022/07/05 03:27:56;;;;;;;0.70;0.70;;;;;;;15.90;51.29;99133.34;5095034;28;43001;-79
2022/07/05 03:30:25;;;;;;;0.70;0.70;;;;;;;15.96;51.29;99155.06;5077606;28;39225;-78
2022/07/05 03:32:53;;;;;;;0.53;0.53;;;;;;;15.98;51.39;99158.47;5077099;28;41143;-78
2022/07/05 03:35:21;;;;;;;0.60;0.60;;;;;;;15.88;51.06;99154.00;5077678;28;41874;-78
2022/07/05 03:37:51;;;;;;;0.83;0.70;;;;;;;15.98;51.31;99160.31;5077737;28;42081;-78
2022/07/05 03:40:22;;;;;;;0.60;0.60;;;;;;;15.85;51.14;99151.56;5094278;28;40881;-80
2022/07/05 03:42:50;;;;;;;0.53;0.53;;;;;;;15.88;51.22;99154.84;5076543;28;40885;-78
2022/07/05 03:45:19;;;;;;;0.60;0.60;;;;;;;15.96;51.45;99171.09;5077520;28;41701;-78
2022/07/05 03:47:48;;;;;;;0.60;0.60;;;;;;;15.95;51.31;99169.41;5112126;28;43562;-78
2022/07/05 03:50:16;;;;;;;0.83;0.70;;;;;;;16.00;51.32;99174.38;5094059;28;42200;-78
2022/07/05 03:52:45;;;;;;;0.70;0.70;;;;;;;16.01;51.92;99168.06;5094537;28;42653;-78
2022/07/05 03:55:12;;;;;;;0.80;0.67;;;;;;;15.99;51.86;99164.66;5077031;28;41339;-78
2022/07/05 03:57:40;;;;;;;0.70;0.70;;;;;;;16.05;51.96;99175.72;5077110;28;41252;-78
2022/07/05 04:00:10;;;;;;;0.70;0.70;;;;;;;16.10;51.53;99170.84;5077189;28;41160;-78
2022/07/05 04:02:41;;;;;;;1.10;1.00;;;;;;;16.15;51.83;99175.84;5109289;28;41921;-78
2022/07/05 04:05:14;;;;;;;1.10;0.77;;;;;;;16.17;51.86;99169.41;5076904;28;43309;-78
2022/07/05 04:07:51;;;;;;;1.07;0.80;;;;;;;16.24;51.94;99179.59;5077420;28;43426;-78
2022/07/05 04:10:23;;;;;;;0.77;0.77;;;;;;;16.30;51.82;99196.00;5093593;28;40211;-78
2022/07/05 04:12:51;;;;;;;1.57;0.80;;;;;;;16.37;51.86;99191.00;5112374;28;41583;-78
2022/07/05 04:15:20;;;;;;;0.73;0.70;;;;;;;16.43;51.71;99187.84;5076833;28;42533;-78
2022/07/05 04:17:50;;;;;;;0.73;0.70;;;;;;;16.51;51.39;99193.41;5094457;28;42368;-78
2022/07/05 04:20:20;;;;;;;0.87;0.60;;;;;;;16.60;51.73;99197.13;5077146;28;40018;-78
2022/07/05 04:22:49;;;;;;;1.40;0.80;;;;;;;16.62;51.77;99185.38;5077072;28;43047;-78
2022/07/05 04:25:19;;;;;;;0.80;0.80;;;;;;;16.75;51.70;99194.09;5093665;28;43452;-78
2022/07/05 04:27:55;;;;;;;0.67;0.60;;;;;;;16.83;51.88;99188.94;5077063;28;42325;-78
2022/07/05 04:30:25;;;;;;;0.80;0.80;;;;;;;16.93;51.90;99193.56;5094028;28;40233;-78
2022/07/05 04:32:55;;;;;;;1.53;0.90;;;;;;;17.02;51.76;99195.47;5090876;28;42409;-78
2022/07/05 04:35:25;;;;;;;0.90;0.80;;;;;;;17.12;51.90;99202.59;5076050;28;43209;-79
2022/07/05 04:37:55;;;;;;;0.70;0.70;;;;;;;17.21;51.72;99193.78;5076611;28;43714;-79
2022/07/05 04:40:24;;;;;;;1.83;0.90;;;;;;;17.31;51.93;99204.53;5076802;28;41334;-79
2022/07/05 04:42:53;;;;;;;0.70;0.70;;;;;;;17.41;51.69;99205.50;5076958;28;40566;-79
2022/07/05 04:45:21;;;;;;;1.50;1.10;;;;;;;17.49;51.65;99216.38;5093628;28;42710;-79
2022/07/05 04:47:50;;;;;;;2.73;0.90;;;;;;;17.59;51.98;99214.63;5093653;28;42312;-79
2022/07/05 04:50:18;;;;;;;1.70;0.87;;;;;;;17.69;51.62;99213.84;5093817;28;41127;-78
2022/07/05 04:52:48;;;;;;;0.77;0.77;;;;;;;17.77;51.66;99216.72;5094062;28;40855;-79
2022/07/05 04:55:15;;;;;;;0.70;0.70;;;;;;;17.85;51.36;99225.81;5079736;28;42804;-79
2022/07/05 04:57:44;;;;;;;1.50;1.00;;;;;;;17.93;51.67;99225.97;5097085;28;42261;-79
2022/07/05 05:00:14;;;;;;;1.30;0.80;;;;;;;18.02;51.72;99228.84;5096652;28;40122;-78
2022/07/05 05:02:42;;;;;;;0.97;0.87;;;;;;;17.99;52.03;99205.84;5079785;28;42422;-78
2022/07/05 05:05:10;;;;;;;0.80;0.80;;;;;;;18.20;51.62;99230.75;5096481;28;41582;-78
2022/07/05 05:07:42;;;;;;;1.20;0.90;;;;;;;18.29;51.23;99232.66;5079717;28;42593;-78
2022/07/05 05:10:12;;;;;;;0.87;0.87;;;;;;;18.39;50.97;99234.50;5079977;28;38725;-78
2022/07/05 05:12:40;;;;;;;0.80;0.70;;;;;;;18.50;51.12;99232.56;5096425;28;40663;-78
2022/07/05 05:15:09;;;;;;;0.67;0.60;;;;;;;18.56;50.55;99231.16;5096577;28;41445;-78
2022/07/05 05:17:38;;;;;;;0.53;0.53;;;;;;;18.74;50.31;99240.28;5096433;28;42510;-78
2022/07/05 05:20:08;;;;;;;0.93;0.93;;;;;;;18.85;50.20;99240.16;5096367;28;40524;-77
2022/07/05 05:22:36;;;;;;;1.17;1.07;;;;;;;18.97;49.88;99240.88;5079758;28;40804;-78
2022/07/05 05:25:04;;;;;;;1.20;1.10;;;;;;;19.05;50.07;99242.84;5114688;28;42733;-78
2022/07/05 05:27:33;;;;;;;0.80;0.80;;;;;;;19.20;49.80;99249.50;5096381;28;42292;-78
2022/07/05 05:30:01;;;;;;;1.20;0.80;;;;;;;19.32;49.08;99241.19;5096556;28;40972;-78
2022/07/05 05:32:29;;;;;;;1.03;0.93;;;;;;;19.47;49.20;99248.81;5079477;28;42046;-78
2022/07/05 05:34:57;;;;;;;1.00;0.90;;;;;;;19.59;48.83;99248.56;5096115;28;43750;-78
2022/07/05 05:37:24;;;;;;;0.80;0.80;;;;;;;19.73;48.54;99245.44;5096315;28;42997;-78
2022/07/05 05:39:52;;;;;;;0.93;0.80;;;;;;;19.87;47.97;99246.81;5079365;28;40358;-79
2022/07/05 05:42:20;;;;;;;2.10;0.77;;;;;;;20.00;48.17;99246.50;5079320;28;43566;-79
2022/07/05 05:44:49;;;;;;;0.80;0.80;;;;;;;20.02;47.94;99233.75;5096993;28;43725;-79
2022/07/05 05:47:17;;;;;;;1.13;1.00;;;;;;;20.25;47.37;99255.75;5095767;28;41724;-79
2022/07/05 05:49:44;;;;;;;0.93;0.90;;;;;;;20.36;46.76;99259.13;5094629;28;40912;-79
2022/07/05 05:52:12;;;;;;;1.07;0.90;;;;;;;20.51;47.23;99261.34;5095694;28;40622;-73
2022/07/05 05:54:40;;;;;;;1.27;0.77;;;;;;;20.62;46.62;99255.75;5095655;28;42958;-73
2022/07/05 05:57:07;;;;;;;0.80;0.80;;;;;;;20.74;45.97;99262.63;5078978;28;43609;-75
2022/07/05 05:59:35;;;;;;;1.83;1.00;;;;;;;20.90;46.18;99261.94;5095637;28;39748;-73
2022/07/05 06:02:05;;;;;;;0.80;0.80;;;;;;;21.06;45.62;99262.13;5095406;28;41877;-73
2022/07/05 06:04:33;;;;;;;1.70;0.90;;;;;;;21.18;45.19;99266.31;5112298;27;42551;-73
2022/07/05 06:07:01;;;;;;;3.17;1.00;;;;;;;21.30;44.78;99275.03;5095360;28;42216;-73
2022/07/05 06:09:28;;;;;;;1.30;1.03;;;;;;;21.41;44.89;99266.72;5095036;28;40020;-73
2022/07/05 06:11:56;;;;;;;0.70;0.63;;;;;;;21.52;44.26;99285.34;5095448;28;42958;-73
2022/07/05 06:14:24;;;;;;;1.00;0.83;;;;;;;21.63;44.25;99284.28;5113824;28;42604;-73
2022/07/05 06:16:52;;;;;;;0.90;0.80;;;;;;;21.73;43.83;99285.88;5112820;28;42224;-73
2022/07/05 06:19:21;;;;;;;2.30;0.90;;;;;;;21.84;43.52;99285.63;5078282;28;39917;-74
2022/07/05 06:21:49;;;;;;;1.87;0.90;;;;;;;21.94;43.37;99284.69;5113421;28;42591;-73
2022/07/05 06:24:17;;;;;;;1.60;0.80;;;;;;;22.10;43.76;99290.22;5094652;28;41817;-73
2022/07/05 06:26:45;;;;;;;1.10;1.00;;;;;;;22.26;43.44;99295.72;5094724;28;42815;-73
2022/07/05 06:29:13;;;;;;;1.27;0.80;;;;;;;22.39;42.98;99298.81;5094657;28;38868;-73
2022/07/05 06:31:41;;;;;;;1.63;1.27;;;;;;;22.51;42.89;99305.63;5079139;28;40649;-73
2022/07/05 06:34:08;;;;;;;1.17;0.97;;;;;;;22.73;43.22;99303.41;5113052;28;43861;-73
2022/07/05 06:36:38;;;;;;;1.13;0.90;;;;;;;22.93;42.79;99310.25;5094771;28;43562;-73
2022/07/05 06:39:06;;;;;;;1.10;1.00;;;;;;;23.07;42.65;99306.09;5094792;28;40890;-73
2022/07/05 06:41:34;;;;;;;0.70;0.70;;;;;;;23.21;42.53;99309.00;5094639;28;42649;-73
2022/07/05 06:44:02;;;;;;;0.80;0.73;;;;;;;23.39;42.63;99289.94;5111587;28;43713;-76
2022/07/05 06:46:30;;;;;;;0.83;0.73;;;;;;;23.84;41.34;99313.84;5079719;28;42900;-75
2022/07/05 06:48:58;;;;;;;1.00;0.90;;;;;;;24.04;40.83;99310.78;5076759;28;38978;-74
2022/07/05 06:51:25;;;;;;;0.80;0.77;;;;;;;24.00;40.98;99292.16;5077187;28;42793;-73
2022/07/05 06:53:55;;;;;;;1.53;0.83;;;;;;;24.24;40.83;99306.72;5094299;28;43787;-72
2022/07/05 06:56:23;;;;;;;1.10;0.87;;;;;;;24.49;40.66;99319.19;5093807;28;42258;-73
2022/07/05 06:58:50;;;;;;;0.80;0.80;;;;;;;24.61;39.97;99316.94;5077222;28;39048;-73
2022/07/05 07:01:18;;;;;;;0.90;0.70;;;;;;;24.72;40.00;99315.75;5112321;28;41653;-73
2022/07/05 07:03:46;;;;;;;1.03;0.73;;;;;;;24.75;39.56;99315.38;5093778;28;41687;-73
2022/07/05 07:06:14;;;;;;;0.90;0.73;;;;;;;24.79;38.75;99316.72;5093538;28;41452;-73
2022/07/05 07:11:29;;;;;;;0.70;0.60;;;;;;;25.30;38.50;99328.88;5090765;28;41735;-75
2022/07/05 07:13:57;;;;;;;1.47;1.00;;;;;;;25.58;37.33;99334.63;5093863;28;42864;-74
2022/07/05 07:16:25;;;;;;;0.77;0.60;;;;;;;25.83;36.78;99319.06;5111712;27;42430;-74
2022/07/05 07:18:53;;;;;;;0.60;0.60;;;;;;;26.16;36.12;99349.47;5076757;28;38944;-76
2022/07/05 07:21:20;;;;;;;0.90;0.87;;;;;;;26.18;35.55;99350.97;5076497;28;41929;-74
2022/07/05 07:23:48;;;;;;;0.70;0.70;;;;;;;26.19;35.85;99343.69;5076789;28;42149;-72
2022/07/05 07:26:16;;;;;;;1.17;0.73;;;;;;;26.25;35.21;99354.63;5093552;28;43231;-75
2022/07/05 07:28:45;;;;;;;0.70;0.70;;;;;;;26.32;33.63;99362.94;5111734;28;39823;-72
2022/07/05 07:31:13;;;;;;;0.93;0.70;;;;;;;26.44;33.85;99364.19;5093259;28;42419;-75
2022/07/05 07:33:41;;;;;;;2.00;0.60;;;;;;;26.78;33.75;99369.91;5093560;28;44171;-74
2022/07/05 07:36:09;;;;;;;1.47;0.90;;;;;;;27.49;32.79;99373.78;5093198;28;41046;-74
2022/07/05 07:38:37;;;;;;;0.70;0.70;;;;;;;28.82;31.27;99368.56;5093231;28;40113;-72
2022/07/05 07:41:04;;;;;;;0.90;0.63;;;;;;;30.11;29.46;99383.16;5093442;28;42654;-75
2022/07/05 07:43:32;;;;;;;0.70;0.70;;;;;;;31.24;28.29;99392.13;5093288;28;41699;-74
2022/07/05 07:46:01;;;;;;;0.80;0.80;;;;;;;32.31;27.02;99394.94;5111656;28;43228;-74
2022/07/05 07:48:29;;;;;;;0.60;0.60;;;;;;;33.40;25.54;99404.44;5093004;28;41274;-78
2022/07/05 07:50:57;;;;;;;0.97;0.90;;;;;;;34.00;24.27;99416.31;5075954;28;43097;-76
2022/07/05 07:53:25;;;;;;;0.70;0.70;;;;;;;33.85;24.45;99415.94;5093645;28;43887;-74
2022/07/05 07:55:53;;;;;;;0.83;0.83;;;;;;;33.45;24.88;99412.84;5092889;28;42273;-74
2022/07/05 07:58:21;;;;;;;0.70;0.70;;;;;;;33.30;24.92;99404.13;5093397;28;40966;-73
2022/07/05 08:00:48;;;;;;;1.27;0.80;;;;;;;33.38;24.68;99401.09;5111197;28;41736;-74
2022/07/05 08:03:18;;;;;;;0.83;0.83;;;;;;;34.01;24.66;99408.91;5111805;28;43629;-77
2022/07/05 08:05:46;;;;;;;0.90;0.90;;;;;;;35.62;23.02;99420.25;5092685;28;42904;-75
2022/07/05 08:08:13;;;;;;;0.97;0.93;;;;;;;36.99;21.44;99431.03;5111736;28;40969;-76
2022/07/05 08:10:41;;;;;;;0.73;0.73;;;;;;;38.50;20.57;99435.94;5072325;28;40687;-74
2022/07/05 08:13:08;;;;;;;3.13;1.02;;;;;;;39.92;19.03;99439.66;5072728;28;43067;-77
2022/07/05 08:15:36;;;;;;;0.80;0.80;;;;;;;41.33;17.55;99451.91;5081613;28;42542;-76
2022/07/05 08:23:36;;;;;;;0.80;0.80;;;;;;;43.93;15.53;99443.16;5108313;28;42783;-77
2022/07/05 08:26:04;;;;;;;0.75;0.75;;;;;;;44.55;15.20;99447.56;5111090;28;42089;-75
2022/07/05 08:28:31;;;;;;;1.05;0.80;;;;;;;44.97;14.70;99451.34;5094688;28;39682;-78
2022/07/05 08:30:59;;;;;;;0.95;0.85;;;;;;;44.80;14.68;99445.50;5096588;28;41664;-78
2022/07/05 08:33:27;;;;;;;1.92;0.88;;;;;;;44.25;15.53;99434.91;5096514;28;41802;-76
2022/07/05 08:35:56;;;;;;;1.65;0.80;;;;;;;43.95;15.60;99412.97;5114369;28;43059;-77
2022/07/05 08:38:24;;;;;;;1.98;0.80;;;;;;;43.97;15.18;99433.09;5114681;28;39840;-76
2022/07/05 08:40:53;;;;;;;1.23;0.80;;;;;;;43.53;15.88;99411.84;5095912;28;42219;-76
2022/07/05 08:43:23;;;;;;;0.90;0.90;;;;;;;43.61;15.57;99418.78;5079815;28;42699;-77
2022/07/05 08:45:53;;;;;;;0.80;0.80;;;;;;;43.55;15.63;99415.16;5095630;28;41469;-77
2022/07/05 08:48:22;;;;;;;0.88;0.80;;;;;;;43.74;15.93;99411.63;5096043;28;40686;-76
2022/07/05 08:50:52;;;;;;;1.00;0.90;;;;;;;43.41;16.32;99417.03;5114011;28;41313;-76
2022/07/05 08:53:22;;;;;;;1.13;1.02;;;;;;;42.08;17.28;99405.41;5114535;27;42490;-76
2022/07/05 08:55:50;;;;;;;1.38;1.00;;;;;;;40.34;18.04;99399.75;5114296;28;42872;-76
2022/07/05 08:58:18;;;;;;;0.90;0.73;;;;;;;38.94;19.04;99385.91;5096023;28;38800;-75
2022/07/05 09:00:46;;;;;;;0.80;0.80;;;;;;;37.77;20.13;99382.09;5095636;28;41970;-76
2022/07/05 09:03:16;;;;;;;0.80;0.80;;;;;;;36.64;20.61;99365.06;5095946;28;41599;-76
2022/07/05 09:05:50;;;;;;;1.20;0.77;;;;;;;35.99;21.26;99389.56;5078133;28;42386;-76
2022/07/05 09:08:19;;;;;;;0.97;0.90;;;;;;;35.46;21.60;99387.16;5096186;28;41032;-77
2022/07/05 09:10:49;;;;;;;0.93;0.70;;;;;;;35.84;20.79;99390.16;5095363;28;41766;-77
2022/07/05 09:13:17;;;;;;;1.50;0.90;;;;;;;36.81;20.44;99383.56;5079433;28;42134;-76
2022/07/05 09:15:48;;;;;;;1.00;0.90;;;;;;;36.71;19.99;99386.16;5093103;28;41716;-77
2022/07/05 09:18:39;;;;;;;1.27;1.20;;;;;;;35.82;21.14;99386.78;5096140;28;40063;-77
2022/07/05 09:21:14;;;;;;;0.83;0.70;;;;;;;34.87;22.11;99364.34;5095370;28;41989;-76
2022/07/05 09:23:42;;;;;;;1.07;0.77;;;;;;;34.32;22.33;99375.69;5062016;28;44062;-77
2022/07/05 09:26:11;;;;;;;1.87;0.80;;;;;;;34.63;22.48;99365.41;5095835;28;41032;-77
2022/07/05 09:28:55;;;;;;;0.90;0.70;;;;;;;36.96;19.94;99389.31;5095768;28;39702;-77
2022/07/05 09:31:30;;;;;;;1.07;0.87;;;;;;;37.95;18.79;99398.31;5110819;28;41717;-77
2022/07/05 09:34:06;;;;;;;0.70;0.70;;;;;;;38.33;18.67;99390.97;5093105;28;42802;-76
2022/07/05 09:36:52;;;;;;;0.80;0.80;;;;;;;38.92;19.33;99394.47;5094425;28;42210;-77
2022/07/05 09:39:36;;;;;;;1.60;0.90;;;;;;;40.35;17.00;99412.53;5077192;28;41314;-75
2022/07/05 09:42:23;;;;;;;0.80;0.80;;;;;;;41.00;16.19;99419.16;5095253;28;41830;-75
2022/07/05 09:44:53;;;;;;;1.27;0.95;;;;;;;40.55;16.94;99407.78;5093842;28;43452;-75
2022/07/05 09:47:23;;;;;;;0.93;0.93;;;;;;;40.64;16.52;99415.59;5113595;28;41764;-75
2022/07/05 09:49:52;;;;;;;0.70;0.70;;;;;;;39.61;17.59;99416.47;5095188;28;39466;-74
2022/07/05 09:52:30;;;;;;;1.42;0.98;;;;;;;39.92;17.33;99419.38;5095237;28;41718;-75
2022/07/05 09:55:05;;;;;;;1.27;1.08;;;;;;;40.62;16.96;99406.69;5095231;28;41888;-75
2022/07/05 09:57:36;;;;;;;0.90;0.85;;;;;;;40.73;16.98;99413.94;5113232;28;42475;-72
2022/07/05 10:00:06;;;;;;;1.27;0.73;;;;;;;41.62;16.17;99420.69;5095167;28;40277;-73
2022/07/05 10:02:38;;;;;;;0.80;0.80;;;;;;;40.90;16.29;99420.03;5112771;28;42815;-74
2022/07/05 10:05:11;;;;;;;1.17;0.90;;;;;;;41.06;16.03;99406.91;5091861;28;42876;-74
2022/07/05 10:07:41;;;;;;;0.60;0.60;;;;;;;40.74;16.65;99394.22;5094819;28;42334;-73
2022/07/05 10:10:10;;;;;;;0.80;0.80;;;;;;;40.56;17.32;99383.63;5078145;28;39912;-76
2022/07/05 10:12:41;;;;;;;1.45;1.00;;;;;;;40.23;17.27;99398.88;5077346;28;40463;-77
2022/07/05 10:15:11;;;;;;;0.90;0.90;;;;;;;39.81;17.34;99390.75;5094543;28;42217;-76
2022/07/05 10:17:43;;;;;;;8.57;1.25;;;;;;;39.66;17.69;99394.31;5094601;28;41739;-76
2022/07/05 10:20:18;;;;;;;1.60;1.02;;;;;;;39.52;17.37;99387.63;5077862;28;38812;-75
2022/07/05 10:22:47;;;;;;;0.70;0.70;;;;;;;39.48;17.09;99392.88;5094984;28;40622;-75
2022/07/05 10:25:15;;;;;;;1.67;1.10;;;;;;;39.85;17.89;99389.13;5112848;28;43710;-75
2022/07/05 10:27:45;;;;;;;1.20;0.90;;;;;;;39.87;16.83;99397.16;5094143;28;42582;-73
2022/07/05 10:30:13;;;;;;;1.83;1.20;;;;;;;39.33;17.20;99390.00;5094361;28;39897;-74
2022/07/05 10:32:42;;;;;;;1.10;1.00;;;;;;;38.67;17.46;99386.00;5094360;28;41749;-73
2022/07/05 10:35:10;;;;;;;0.80;0.80;;;;;;;38.50;18.00;99388.03;5112481;28;42807;-72
2022/07/05 10:37:39;;;;;;;0.80;0.80;;;;;;;38.59;17.89;99395.63;5094535;28;42335;-72
2022/07/05 10:40:07;;;;;;;0.70;0.70;;;;;;;38.96;17.58;99386.44;5112469;28;39906;-72
2022/07/05 10:42:40;;;;;;;1.25;0.90;;;;;;;39.30;17.75;99375.88;5077261;28;41742;-72
2022/07/05 10:45:30;;;;;;;1.60;0.98;;;;;;;38.86;17.63;99389.16;5109195;28;43868;-72
2022/07/05 10:48:18;;;;;;;0.83;0.83;;;;;;;37.91;18.58;99383.34;5111120;28;43100;-72
2022/07/05 10:50:50;;;;;;;1.20;1.10;;;;;;;37.08;19.00;99380.91;5093237;28;39956;-73
2022/07/05 10:53:19;;;;;;;1.03;1.03;;;;;;;36.41;19.80;99376.28;5076655;28;43795;-72
2022/07/05 10:55:56;;;;;;;0.80;0.80;;;;;;;36.08;19.88;99362.44;5093508;28;41771;-72
2022/07/05 10:58:32;;;;;;;1.10;1.00;;;;;;;35.97;19.96;99364.19;5093188;28;42257;-73
2022/07/05 11:01:36;;;;;;;1.00;0.90;;;;;;;36.18;20.27;99362.63;5093924;28;39113;-72
2022/07/05 11:04:30;;;;;;;1.70;1.10;;;;;;;36.30;19.99;99361.47;5090794;28;41963;-73
2022/07/05 11:06:58;;;;;;;0.83;0.83;;;;;;;36.42;19.27;99368.84;5109421;28;43091;-73
2022/07/05 11:09:26;;;;;;;0.90;0.80;;;;;;;36.59;20.19;99365.00;5093776;28;42281;-73
2022/07/05 11:12:12;;;;;;;0.90;0.90;;;;;;;36.83;20.17;99359.28;5092943;28;39973;-73
2022/07/05 11:14:46;;;;;;;1.10;1.00;;;;;;;36.94;19.61;99359.19;5090690;28;41891;-74
2022/07/05 11:17:29;;;;;;;0.90;0.90;;;;;;;37.03;19.44;99359.56;5093321;28;42968;-73
2022/07/05 11:20:08;;;;;;;0.80;0.80;;;;;;;36.99;19.58;99362.00;5093310;28;42111;-73
2022/07/05 11:22:37;;;;;;;1.50;0.97;;;;;;;36.49;19.26;99367.56;5110163;28;40857;-73
2022/07/05 11:25:07;;;;;;;0.93;0.73;;;;;;;36.02;20.47;99352.41;5111746;28;41487;-73
2022/07/05 11:27:35;;;;;;;0.77;0.77;;;;;;;35.65;20.88;99352.78;5093442;28;42732;-77
2022/07/05 11:30:04;;;;;;;0.80;0.80;;;;;;;35.60;20.83;99356.31;5076821;28;41314;-77
2022/07/05 11:32:38;;;;;;;0.97;0.63;;;;;;;35.76;20.93;99340.91;5076807;28;40467;-75
2022/07/05 11:35:17;;;;;;;0.73;0.73;;;;;;;35.79;21.13;99343.19;5111865;28;41751;-74
2022/07/05 11:38:04;;;;;;;1.27;1.17;;;;;;;35.94;20.61;99337.94;5093899;28;43077;-74
2022/07/05 11:40:33;;;;;;;1.17;0.87;;;;;;;36.32;21.01;99336.41;5108194;28;43054;-73
2022/07/05 11:43:02;;;;;;;1.57;1.00;;;;;;;36.50;20.96;99319.56;5093707;28;40045;-73
2022/07/05 11:45:31;;;;;;;0.77;0.73;;;;;;;36.24;20.98;99334.03;5076128;28;43448;-75
2022/07/05 11:48:04;;;;;;;0.70;0.70;;;;;;;35.75;19.71;99344.75;5111242;28;43798;-75
2022/07/05 11:50:33;;;;;;;0.90;0.90;;;;;;;35.43;19.75;99341.63;5108106;28;42300;-74
2022/07/05 11:53:02;;;;;;;0.90;0.73;;;;;;;36.07;19.84;99338.72;5111814;28;39773;-75
2022/07/05 11:55:31;;;;;;;0.97;0.93;;;;;;;37.48;19.28;99333.63;5111813;28;42703;-75